sensor_id;sensor_type;location;lat;lon;timestamp;P1;durP1;ratioP1;P2;durP2;ratioP2
8665;SDS011;4370;48.916;8.380;2023-11-19T00:03:40;0.90;;;0.90;;
8665;SDS011;4370;48.916;8.380;2023-11-19T00:06:06;1.17;;;1.07;;
8665;SDS011;4370;48.916;8.380;2023-11-19T00:08:35;1.10;;;1.00;;
8665;SDS011;4370;48.916;8.380;2023-11-19T00:11:03;1.30;;;1.10;;
8665;SDS011;4370;48.916;8.380;2023-11-19T00:13:35;3.53;;;1.10;;
8665;SDS011;4370;48.916;8.380;2023-11-19T00:16:01;2.60;;;1.00;;
8665;SDS011;4370;48.916;8.380;2023-11-19T00:18:29;1.20;;;1.00;;
8665;SDS011;4370;48.916;8.380;2023-11-19T00:20:58;0.90;;;0.90;;
8665;SDS011;4370;48.916;8.380;2023-11-19T00:23:24;1.20;;;1.07;;
8665;SDS011;4370;48.916;8.380;2023-11-19T00:25:50;2.70;;;1.10;;
8665;SDS011;4370;48.916;8.380;2023-11-19T00:28:18;3.10;;;1.00;;
8665;SDS011;4370;48.916;8.380;2023-11-19T00:30:46;1.40;;;1.00;;
8665;SDS011;4370;48.916;8.380;2023-11-19T00:33:13;2.50;;;1.03;;
8665;SDS011;4370;48.916;8.380;2023-11-19T00:35:39;0.90;;;0.90;;
8665;SDS011;4370;48.916;8.380;2023-11-19T00:38:19;5.13;;;0.97;;
8665;SDS011;4370;48.916;8.380;2023-11-19T00:40:51;0.90;;;0.90;;
8665;SDS011;4370;48.916;8.380;2023-11-19T00:43:20;2.87;;;1.23;;
8665;SDS011;4370;48.916;8.380;2023-11-19T00:45:49;1.10;;;1.00;;
8665;SDS011;4370;48.916;8.380;2023-11-19T00:48:38;2.40;;;1.00;;
8665;SDS011;4370;48.916;8.380;2023-11-19T00:51:07;1.00;;;1.00;;
8665;SDS011;4370;48.916;8.380;2023-11-19T00:53:34;1.20;;;0.80;;
8665;SDS011;4370;48.916;8.380;2023-11-19T00:56:01;1.50;;;0.80;;
8665;SDS011;4370;48.916;8.380;2023-11-19T00:58:26;1.10;;;0.97;;
8665;SDS011;4370;48.916;8.380;2023-11-19T01:00:53;0.70;;;0.70;;
8665;SDS011;4370;48.916;8.380;2023-11-19T01:03:31;0.90;;;0.90;;
8665;SDS011;4370;48.916;8.380;2023-11-19T01:05:58;0.97;;;0.70;;
8665;SDS011;4370;48.916;8.380;2023-11-19T01:08:26;0.73;;;0.73;;
8665;SDS011;4370;48.916;8.380;2023-11-19T01:10:52;1.67;;;0.90;;
8665;SDS011;4370;48.916;8.380;2023-11-19T01:13:19;1.40;;;0.70;;
8665;SDS011;4370;48.916;8.380;2023-11-19T01:15:45;0.80;;;0.80;;
8665;SDS011;4370;48.916;8.380;2023-11-19T01:18:10;0.90;;;0.70;;
8665;SDS011;4370;48.916;8.380;2023-11-19T01:20:38;0.90;;;0.90;;
8665;SDS011;4370;48.916;8.380;2023-11-19T01:23:04;0.70;;;0.70;;
8665;SDS011;4370;48.916;8.380;2023-11-19T01:25:30;0.73;;;0.73;;
8665;SDS011;4370;48.916;8.380;2023-11-19T01:27:55;0.80;;;0.80;;
8665;SDS011;4370;48.916;8.380;2023-11-19T01:30:24;0.80;;;0.80;;
8665;SDS011;4370;48.916;8.380;2023-11-19T01:32:52;0.93;;;0.83;;
8665;SDS011;4370;48.916;8.380;2023-11-19T01:35:17;0.80;;;0.80;;
8665;SDS011;4370;48.916;8.380;2023-11-19T01:37:45;0.80;;;0.80;;
8665;SDS011;4370;48.916;8.380;2023-11-19T01:40:12;0.70;;;0.70;;
8665;SDS011;4370;48.916;8.380;2023-11-19T01:42:38;0.70;;;0.70;;
8665;SDS011;4370;48.916;8.380;2023-11-19T01:45:04;0.90;;;0.90;;
8665;SDS011;4370;48.916;8.380;2023-11-19T01:47:34;1.90;;;0.90;;
8665;SDS011;4370;48.916;8.380;2023-11-19T01:50:01;1.60;;;1.00;;
8665;SDS011;4370;48.916;8.380;2023-11-19T01:52:31;0.80;;;0.80;;
8665;SDS011;4370;48.916;8.380;2023-11-19T01:55:03;0.80;;;0.80;;
8665;SDS011;4370;48.916;8.380;2023-11-19T01:57:30;0.80;;;0.80;;
8665;SDS011;4370;48.916;8.380;2023-11-19T01:59:58;0.77;;;0.70;;
8665;SDS011;4370;48.916;8.380;2023-11-19T02:02:24;0.97;;;0.80;;
8665;SDS011;4370;48.916;8.380;2023-11-19T02:04:52;0.80;;;0.80;;
8665;SDS011;4370;48.916;8.380;2023-11-19T02:07:18;1.30;;;0.87;;
8665;SDS011;4370;48.916;8.380;2023-11-19T02:09:45;0.80;;;0.80;;
8665;SDS011;4370;48.916;8.380;2023-11-19T02:12:11;3.40;;;0.90;;
8665;SDS011;4370;48.916;8.380;2023-11-19T02:14:38;0.90;;;0.90;;
8665;SDS011;4370;48.916;8.380;2023-11-19T02:17:06;1.00;;;0.80;;
8665;SDS011;4370;48.916;8.380;2023-11-19T02:19:31;0.90;;;0.90;;
8665;SDS011;4370;48.916;8.380;2023-11-19T02:21:58;1.27;;;1.00;;
8665;SDS011;4370;48.916;8.380;2023-11-19T02:24:26;0.80;;;0.80;;
8665;SDS011;4370;48.916;8.380;2023-11-19T02:29:33;1.03;;;1.00;;
8665;SDS011;4370;48.916;8.380;2023-11-19T02:32:00;1.10;;;1.00;;
8665;SDS011;4370;48.916;8.380;2023-11-19T02:34:28;1.43;;;0.90;;
8665;SDS011;4370;48.916;8.380;2023-11-19T02:36:56;1.20;;;1.00;;
8665;SDS011;4370;48.916;8.380;2023-11-19T02:39:23;1.27;;;0.93;;
8665;SDS011;4370;48.916;8.380;2023-11-19T02:41:49;1.13;;;1.00;;
8665;SDS011;4370;48.916;8.380;2023-11-19T02:44:17;3.30;;;1.30;;
8665;SDS011;4370;48.916;8.380;2023-11-19T02:46:43;2.97;;;1.20;;
8665;SDS011;4370;48.916;8.380;2023-11-19T02:49:09;1.20;;;1.10;;
8665;SDS011;4370;48.916;8.380;2023-11-19T02:51:35;2.30;;;1.10;;
8665;SDS011;4370;48.916;8.380;2023-11-19T02:54:01;1.03;;;0.97;;
8665;SDS011;4370;48.916;8.380;2023-11-19T02:56:30;1.83;;;1.20;;
8665;SDS011;4370;48.916;8.380;2023-11-19T02:59:00;1.93;;;1.30;;
8665;SDS011;4370;48.916;8.380;2023-11-19T03:01:40;1.87;;;1.20;;
8665;SDS011;4370;48.916;8.380;2023-11-19T03:04:13;1.20;;;1.10;;
8665;SDS011;4370;48.916;8.380;2023-11-19T03:06:42;1.33;;;1.10;;
8665;SDS011;4370;48.916;8.380;2023-11-19T03:09:08;1.10;;;1.00;;
8665;SDS011;4370;48.916;8.380;2023-11-19T03:11:35;1.37;;;1.27;;
8665;SDS011;4370;48.916;8.380;2023-11-19T03:14:01;1.10;;;1.00;;
8665;SDS011;4370;48.916;8.380;2023-11-19T03:16:28;1.17;;;0.90;;
8665;SDS011;4370;48.916;8.380;2023-11-19T03:18:54;3.00;;;1.10;;
8665;SDS011;4370;48.916;8.380;2023-11-19T03:21:30;1.07;;;1.00;;
8665;SDS011;4370;48.916;8.380;2023-11-19T03:23:56;1.13;;;1.03;;
8665;SDS011;4370;48.916;8.380;2023-11-19T03:26:26;2.73;;;0.93;;
8665;SDS011;4370;48.916;8.380;2023-11-19T03:28:52;1.00;;;0.90;;
8665;SDS011;4370;48.916;8.380;2023-11-19T03:31:18;0.70;;;0.70;;
8665;SDS011;4370;48.916;8.380;2023-11-19T03:33:45;0.93;;;0.90;;
8665;SDS011;4370;48.916;8.380;2023-11-19T03:36:11;1.07;;;1.00;;
8665;SDS011;4370;48.916;8.380;2023-11-19T03:38:38;1.53;;;0.90;;
8665;SDS011;4370;48.916;8.380;2023-11-19T03:41:10;1.13;;;0.80;;
8665;SDS011;4370;48.916;8.380;2023-11-19T03:43:36;1.23;;;0.90;;
8665;SDS011;4370;48.916;8.380;2023-11-19T03:46:04;0.80;;;0.80;;
8665;SDS011;4370;48.916;8.380;2023-11-19T03:48:31;1.47;;;0.90;;
8665;SDS011;4370;48.916;8.380;2023-11-19T03:50:57;1.47;;;0.90;;
8665;SDS011;4370;48.916;8.380;2023-11-19T03:53:22;1.67;;;0.87;;
8665;SDS011;4370;48.916;8.380;2023-11-19T03:55:49;0.83;;;0.83;;
8665;SDS011;4370;48.916;8.380;2023-11-19T03:58:15;1.30;;;1.00;;
8665;SDS011;4370;48.916;8.380;2023-11-19T04:00:40;1.23;;;0.90;;
8665;SDS011;4370;48.916;8.380;2023-11-19T04:03:06;0.90;;;0.90;;
8665;SDS011;4370;48.916;8.380;2023-11-19T04:05:31;0.87;;;0.87;;
8665;SDS011;4370;48.916;8.380;2023-11-19T04:07:57;1.47;;;1.00;;
8665;SDS011;4370;48.916;8.380;2023-11-19T04:10:23;0.80;;;0.80;;
8665;SDS011;4370;48.916;8.380;2023-11-19T04:12:49;0.83;;;0.83;;
8665;SDS011;4370;48.916;8.380;2023-11-19T04:15:15;0.80;;;0.80;;
8665;SDS011;4370;48.916;8.380;2023-11-19T04:17:41;3.37;;;1.00;;
8665;SDS011;4370;48.916;8.380;2023-11-19T04:20:07;1.80;;;1.00;;
8665;SDS011;4370;48.916;8.380;2023-11-19T04:22:37;0.80;;;0.80;;
8665;SDS011;4370;48.916;8.380;2023-11-19T04:25:03;1.67;;;0.80;;
8665;SDS011;4370;48.916;8.380;2023-11-19T04:27:30;0.83;;;0.83;;
8665;SDS011;4370;48.916;8.380;2023-11-19T04:29:56;1.50;;;0.90;;
8665;SDS011;4370;48.916;8.380;2023-11-19T04:32:21;0.70;;;0.70;;
8665;SDS011;4370;48.916;8.380;2023-11-19T04:34:47;0.90;;;0.90;;
8665;SDS011;4370;48.916;8.380;2023-11-19T04:37:13;0.80;;;0.80;;
8665;SDS011;4370;48.916;8.380;2023-11-19T04:39:38;0.80;;;0.80;;
8665;SDS011;4370;48.916;8.380;2023-11-19T04:42:05;1.00;;;0.90;;
8665;SDS011;4370;48.916;8.380;2023-11-19T04:44:31;1.10;;;0.90;;
8665;SDS011;4370;48.916;8.380;2023-11-19T04:46:57;0.70;;;0.70;;
8665;SDS011;4370;48.916;8.380;2023-11-19T04:49:23;0.80;;;0.80;;
8665;SDS011;4370;48.916;8.380;2023-11-19T04:51:51;0.73;;;0.73;;
8665;SDS011;4370;48.916;8.380;2023-11-19T04:54:17;0.80;;;0.80;;
8665;SDS011;4370;48.916;8.380;2023-11-19T04:56:46;0.90;;;0.90;;
8665;SDS011;4370;48.916;8.380;2023-11-19T04:59:12;0.70;;;0.70;;
8665;SDS011;4370;48.916;8.380;2023-11-19T05:01:38;0.80;;;0.80;;
8665;SDS011;4370;48.916;8.380;2023-11-19T05:04:06;2.03;;;0.70;;
8665;SDS011;4370;48.916;8.380;2023-11-19T05:06:33;0.80;;;0.80;;
8665;SDS011;4370;48.916;8.380;2023-11-19T05:09:00;1.50;;;0.80;;
8665;SDS011;4370;48.916;8.380;2023-11-19T05:11:29;0.70;;;0.70;;
8665;SDS011;4370;48.916;8.380;2023-11-19T05:13:55;0.70;;;0.70;;
8665;SDS011;4370;48.916;8.380;2023-11-19T05:16:20;0.80;;;0.80;;
8665;SDS011;4370;48.916;8.380;2023-11-19T05:18:46;0.67;;;0.67;;
8665;SDS011;4370;48.916;8.380;2023-11-19T05:21:12;1.33;;;0.70;;
8665;SDS011;4370;48.916;8.380;2023-11-19T05:23:38;1.13;;;0.80;;
8665;SDS011;4370;48.916;8.380;2023-11-19T05:26:04;0.73;;;0.73;;
8665;SDS011;4370;48.916;8.380;2023-11-19T05:28:30;0.60;;;0.60;;
8665;SDS011;4370;48.916;8.380;2023-11-19T05:30:57;2.00;;;0.70;;
8665;SDS011;4370;48.916;8.380;2023-11-19T05:33:24;0.77;;;0.77;;
8665;SDS011;4370;48.916;8.380;2023-11-19T05:35:49;0.73;;;0.73;;
8665;SDS011;4370;48.916;8.380;2023-11-19T05:38:16;0.70;;;0.70;;
8665;SDS011;4370;48.916;8.380;2023-11-19T05:40:43;0.70;;;0.70;;
8665;SDS011;4370;48.916;8.380;2023-11-19T05:43:09;0.70;;;0.70;;
8665;SDS011;4370;48.916;8.380;2023-11-19T05:45:35;0.77;;;0.77;;
8665;SDS011;4370;48.916;8.380;2023-11-19T05:48:00;0.73;;;0.73;;
8665;SDS011;4370;48.916;8.380;2023-11-19T05:50:29;0.63;;;0.63;;
8665;SDS011;4370;48.916;8.380;2023-11-19T05:52:55;0.93;;;0.73;;
8665;SDS011;4370;48.916;8.380;2023-11-19T05:55:20;3.93;;;0.63;;
8665;SDS011;4370;48.916;8.380;2023-11-19T05:57:49;0.70;;;0.70;;
8665;SDS011;4370;48.916;8.380;2023-11-19T06:00:16;0.70;;;0.70;;
8665;SDS011;4370;48.916;8.380;2023-11-19T06:02:43;0.60;;;0.60;;
8665;SDS011;4370;48.916;8.380;2023-11-19T06:05:08;1.47;;;0.87;;
8665;SDS011;4370;48.916;8.380;2023-11-19T06:07:34;1.10;;;0.80;;
8665;SDS011;4370;48.916;8.380;2023-11-19T06:10:02;2.60;;;0.70;;
8665;SDS011;4370;48.916;8.380;2023-11-19T06:12:30;1.02;;;0.75;;
8665;SDS011;4370;48.916;8.380;2023-11-19T06:14:56;1.23;;;0.97;;
8665;SDS011;4370;48.916;8.380;2023-11-19T06:17:23;0.80;;;0.70;;
8665;SDS011;4370;48.916;8.380;2023-11-19T06:19:50;0.70;;;0.70;;
8665;SDS011;4370;48.916;8.380;2023-11-19T06:22:17;0.97;;;0.70;;
8665;SDS011;4370;48.916;8.380;2023-11-19T06:24:43;0.80;;;0.80;;
8665;SDS011;4370;48.916;8.380;2023-11-19T06:27:08;0.60;;;0.60;;
8665;SDS011;4370;48.916;8.380;2023-11-19T06:29:34;0.60;;;0.60;;
8665;SDS011;4370;48.916;8.380;2023-11-19T06:32:02;0.70;;;0.70;;
8665;SDS011;4370;48.916;8.380;2023-11-19T06:34:28;2.23;;;0.83;;
8665;SDS011;4370;48.916;8.380;2023-11-19T06:36:53;1.33;;;0.70;;
8665;SDS011;4370;48.916;8.380;2023-11-19T06:39:19;0.70;;;0.67;;
8665;SDS011;4370;48.916;8.380;2023-11-19T06:41:45;3.07;;;0.73;;
8665;SDS011;4370;48.916;8.380;2023-11-19T06:44:11;1.03;;;0.70;;
8665;SDS011;4370;48.916;8.380;2023-11-19T06:46:37;0.57;;;0.57;;
8665;SDS011;4370;48.916;8.380;2023-11-19T06:49:03;1.23;;;0.73;;
8665;SDS011;4370;48.916;8.380;2023-11-19T06:51:28;0.50;;;0.50;;
8665;SDS011;4370;48.916;8.380;2023-11-19T06:53:54;1.43;;;0.80;;
8665;SDS011;4370;48.916;8.380;2023-11-19T06:56:23;0.63;;;0.63;;
8665;SDS011;4370;48.916;8.380;2023-11-19T06:58:49;1.60;;;0.83;;
8665;SDS011;4370;48.916;8.380;2023-11-19T07:01:18;0.70;;;0.70;;
8665;SDS011;4370;48.916;8.380;2023-11-19T07:03:45;1.43;;;0.83;;
8665;SDS011;4370;48.916;8.380;2023-11-19T07:06:11;0.80;;;0.70;;
8665;SDS011;4370;48.916;8.380;2023-11-19T07:08:38;1.47;;;0.73;;
8665;SDS011;4370;48.916;8.380;2023-11-19T07:11:04;0.70;;;0.70;;
8665;SDS011;4370;48.916;8.380;2023-11-19T07:13:29;0.60;;;0.60;;
8665;SDS011;4370;48.916;8.380;2023-11-19T07:15:58;0.60;;;0.60;;
8665;SDS011;4370;48.916;8.380;2023-11-19T07:18:25;0.60;;;0.57;;
8665;SDS011;4370;48.916;8.380;2023-11-19T07:20:50;0.60;;;0.60;;
8665;SDS011;4370;48.916;8.380;2023-11-19T07:23:16;0.80;;;0.80;;
8665;SDS011;4370;48.916;8.380;2023-11-19T07:25:43;0.60;;;0.60;;
8665;SDS011;4370;48.916;8.380;2023-11-19T07:28:12;0.87;;;0.70;;
8665;SDS011;4370;48.916;8.380;2023-11-19T07:30:38;1.70;;;0.80;;
8665;SDS011;4370;48.916;8.380;2023-11-19T07:33:04;4.07;;;0.63;;
8665;SDS011;4370;48.916;8.380;2023-11-19T07:35:31;0.57;;;0.50;;
8665;SDS011;4370;48.916;8.380;2023-11-19T07:37:57;1.53;;;0.70;;
8665;SDS011;4370;48.916;8.380;2023-11-19T07:40:26;0.50;;;0.50;;
8665;SDS011;4370;48.916;8.380;2023-11-19T07:42:51;1.17;;;0.60;;
8665;SDS011;4370;48.916;8.380;2023-11-19T07:45:17;0.77;;;0.77;;
8665;SDS011;4370;48.916;8.380;2023-11-19T07:47:44;1.20;;;0.60;;
8665;SDS011;4370;48.916;8.380;2023-11-19T07:50:10;0.53;;;0.53;;
8665;SDS011;4370;48.916;8.380;2023-11-19T07:52:39;0.70;;;0.70;;
8665;SDS011;4370;48.916;8.380;2023-11-19T07:55:04;1.93;;;0.70;;
8665;SDS011;4370;48.916;8.380;2023-11-19T07:57:30;1.33;;;0.80;;
8665;SDS011;4370;48.916;8.380;2023-11-19T07:59:56;0.63;;;0.60;;
8665;SDS011;4370;48.916;8.380;2023-11-19T08:02:23;1.53;;;0.80;;
8665;SDS011;4370;48.916;8.380;2023-11-19T08:04:49;0.80;;;0.60;;
8665;SDS011;4370;48.916;8.380;2023-11-19T08:07:16;0.70;;;0.70;;
8665;SDS011;4370;48.916;8.380;2023-11-19T08:09:43;1.50;;;0.90;;
8665;SDS011;4370;48.916;8.380;2023-11-19T08:12:11;0.73;;;0.70;;
8665;SDS011;4370;48.916;8.380;2023-11-19T08:14:39;1.00;;;0.90;;
8665;SDS011;4370;48.916;8.380;2023-11-19T08:17:05;1.33;;;0.80;;
8665;SDS011;4370;48.916;8.380;2023-11-19T08:19:30;0.87;;;0.87;;
8665;SDS011;4370;48.916;8.380;2023-11-19T08:21:56;1.43;;;1.00;;
8665;SDS011;4370;48.916;8.380;2023-11-19T08:24:22;3.07;;;1.73;;
8665;SDS011;4370;48.916;8.380;2023-11-19T08:26:49;2.43;;;1.20;;
8665;SDS011;4370;48.916;8.380;2023-11-19T08:29:15;2.23;;;1.43;;
8665;SDS011;4370;48.916;8.380;2023-11-19T08:31:42;4.00;;;2.20;;
8665;SDS011;4370;48.916;8.380;2023-11-19T08:34:08;1.87;;;1.30;;
8665;SDS011;4370;48.916;8.380;2023-11-19T08:36:36;1.40;;;1.30;;
8665;SDS011;4370;48.916;8.380;2023-11-19T08:39:02;5.00;;;1.20;;
8665;SDS011;4370;48.916;8.380;2023-11-19T08:45:15;0.90;;;0.90;;
8665;SDS011;4370;48.916;8.380;2023-11-19T08:47:43;1.90;;;0.80;;
8665;SDS011;4370;48.916;8.380;2023-11-19T08:50:10;0.97;;;0.90;;
8665;SDS011;4370;48.916;8.380;2023-11-19T08:52:36;2.03;;;0.97;;
8665;SDS011;4370;48.916;8.380;2023-11-19T08:55:04;1.47;;;1.00;;
8665;SDS011;4370;48.916;8.380;2023-11-19T08:57:38;0.80;;;0.80;;
8665;SDS011;4370;48.916;8.380;2023-11-19T09:00:07;2.23;;;0.93;;
8665;SDS011;4370;48.916;8.380;2023-11-19T09:02:34;0.93;;;0.87;;
8665;SDS011;4370;48.916;8.380;2023-11-19T09:05:05;1.87;;;1.10;;
8665;SDS011;4370;48.916;8.380;2023-11-19T09:07:32;0.87;;;0.87;;
8665;SDS011;4370;48.916;8.380;2023-11-19T09:09:58;1.37;;;1.00;;
8665;SDS011;4370;48.916;8.380;2023-11-19T09:12:24;2.03;;;0.97;;
8665;SDS011;4370;48.916;8.380;2023-11-19T09:14:50;1.10;;;1.00;;
8665;SDS011;4370;48.916;8.380;2023-11-19T09:17:17;2.80;;;1.50;;
8665;SDS011;4370;48.916;8.380;2023-11-19T09:19:43;3.47;;;1.00;;
8665;SDS011;4370;48.916;8.380;2023-11-19T09:22:12;0.97;;;0.97;;
8665;SDS011;4370;48.916;8.380;2023-11-19T09:24:37;1.43;;;1.30;;
8665;SDS011;4370;48.916;8.380;2023-11-19T09:27:04;1.60;;;1.10;;
8665;SDS011;4370;48.916;8.380;2023-11-19T09:29:33;1.93;;;1.20;;
8665;SDS011;4370;48.916;8.380;2023-11-19T09:32:00;1.10;;;0.97;;
8665;SDS011;4370;48.916;8.380;2023-11-19T09:34:29;1.20;;;1.10;;
8665;SDS011;4370;48.916;8.380;2023-11-19T09:36:56;1.17;;;1.07;;
8665;SDS011;4370;48.916;8.380;2023-11-19T09:39:22;1.10;;;1.00;;
8665;SDS011;4370;48.916;8.380;2023-11-19T09:41:47;2.43;;;1.10;;
8665;SDS011;4370;48.916;8.380;2023-11-19T09:44:14;1.10;;;1.00;;
8665;SDS011;4370;48.916;8.380;2023-11-19T09:46:43;1.27;;;0.90;;
8665;SDS011;4370;48.916;8.380;2023-11-19T09:49:11;0.90;;;0.90;;
8665;SDS011;4370;48.916;8.380;2023-11-19T09:51:38;1.37;;;1.10;;
8665;SDS011;4370;48.916;8.380;2023-11-19T09:54:05;4.13;;;1.27;;
8665;SDS011;4370;48.916;8.380;2023-11-19T09:56:32;1.73;;;1.30;;
8665;SDS011;4370;48.916;8.380;2023-11-19T09:59:02;1.50;;;0.90;;
8665;SDS011;4370;48.916;8.380;2023-11-19T10:01:28;1.47;;;1.17;;
8665;SDS011;4370;48.916;8.380;2023-11-19T10:03:57;2.10;;;1.10;;
8665;SDS011;4370;48.916;8.380;2023-11-19T10:06:25;2.70;;;1.00;;
8665;SDS011;4370;48.916;8.380;2023-11-19T10:08:52;0.80;;;0.80;;
8665;SDS011;4370;48.916;8.380;2023-11-19T10:11:17;2.07;;;0.80;;
8665;SDS011;4370;48.916;8.380;2023-11-19T10:13:43;1.40;;;1.00;;
8665;SDS011;4370;48.916;8.380;2023-11-19T10:16:10;2.00;;;1.00;;
8665;SDS011;4370;48.916;8.380;2023-11-19T10:18:37;0.90;;;0.90;;
8665;SDS011;4370;48.916;8.380;2023-11-19T10:21:13;1.40;;;0.90;;
8665;SDS011;4370;48.916;8.380;2023-11-19T10:26:22;1.20;;;1.10;;
8665;SDS011;4370;48.916;8.380;2023-11-19T10:28:49;1.73;;;0.93;;
8665;SDS011;4370;48.916;8.380;2023-11-19T10:31:15;2.00;;;0.90;;
8665;SDS011;4370;48.916;8.380;2023-11-19T10:33:43;1.00;;;0.90;;
8665;SDS011;4370;48.916;8.380;2023-11-19T10:36:11;1.03;;;1.00;;
8665;SDS011;4370;48.916;8.380;2023-11-19T10:38:38;4.57;;;2.37;;
8665;SDS011;4370;48.916;8.380;2023-11-19T10:41:05;1.87;;;1.30;;
8665;SDS011;4370;48.916;8.380;2023-11-19T10:43:41;1.30;;;1.00;;
8665;SDS011;4370;48.916;8.380;2023-11-19T10:46:12;1.53;;;1.10;;
8665;SDS011;4370;48.916;8.380;2023-11-19T10:48:39;2.00;;;1.00;;
8665;SDS011;4370;48.916;8.380;2023-11-19T10:51:06;1.87;;;1.20;;
8665;SDS011;4370;48.916;8.380;2023-11-19T10:53:38;2.40;;;0.90;;
8665;SDS011;4370;48.916;8.380;2023-11-19T10:56:10;2.47;;;1.10;;
8665;SDS011;4370;48.916;8.380;2023-11-19T10:58:36;1.87;;;1.00;;
8665;SDS011;4370;48.916;8.380;2023-11-19T11:01:09;1.10;;;1.00;;
8665;SDS011;4370;48.916;8.380;2023-11-19T11:03:40;1.20;;;0.80;;
8665;SDS011;4370;48.916;8.380;2023-11-19T11:06:13;1.40;;;0.90;;
8665;SDS011;4370;48.916;8.380;2023-11-19T11:08:39;1.10;;;1.00;;
8665;SDS011;4370;48.916;8.380;2023-11-19T11:11:06;1.03;;;0.93;;
8665;SDS011;4370;48.916;8.380;2023-11-19T11:13:37;1.40;;;1.07;;
8665;SDS011;4370;48.916;8.380;2023-11-19T11:16:07;1.57;;;1.07;;
8665;SDS011;4370;48.916;8.380;2023-11-19T11:18:33;1.73;;;1.00;;
8665;SDS011;4370;48.916;8.380;2023-11-19T11:21:11;1.90;;;1.27;;
8665;SDS011;4370;48.916;8.380;2023-11-19T11:23:54;2.33;;;1.03;;
8665;SDS011;4370;48.916;8.380;2023-11-19T11:29:35;1.50;;;1.20;;
8665;SDS011;4370;48.916;8.380;2023-11-19T11:32:25;4.00;;;1.47;;
8665;SDS011;4370;48.916;8.380;2023-11-19T11:37:55;1.93;;;1.33;;
8665;SDS011;4370;48.916;8.380;2023-11-19T11:40:31;2.37;;;1.30;;
8665;SDS011;4370;48.916;8.380;2023-11-19T11:43:45;3.53;;;1.30;;
8665;SDS011;4370;48.916;8.380;2023-11-19T11:49:00;2.00;;;1.10;;
8665;SDS011;4370;48.916;8.380;2023-11-19T11:54:10;1.77;;;1.10;;
8665;SDS011;4370;48.916;8.380;2023-11-19T11:56:42;1.57;;;1.10;;
8665;SDS011;4370;48.916;8.380;2023-11-19T12:02:09;1.87;;;1.07;;
8665;SDS011;4370;48.916;8.380;2023-11-19T12:04:37;1.10;;;1.00;;
8665;SDS011;4370;48.916;8.380;2023-11-19T12:07:06;2.37;;;1.23;;
8665;SDS011;4370;48.916;8.380;2023-11-19T12:09:42;2.37;;;1.20;;
8665;SDS011;4370;48.916;8.380;2023-11-19T12:12:22;2.73;;;1.60;;
8665;SDS011;4370;48.916;8.380;2023-11-19T12:19:59;2.70;;;1.00;;
8665;SDS011;4370;48.916;8.380;2023-11-19T12:22:26;1.60;;;1.30;;
8665;SDS011;4370;48.916;8.380;2023-11-19T12:24:52;1.10;;;1.00;;
8665;SDS011;4370;48.916;8.380;2023-11-19T12:27:19;2.37;;;1.10;;
8665;SDS011;4370;48.916;8.380;2023-11-19T12:29:47;3.73;;;1.33;;
8665;SDS011;4370;48.916;8.380;2023-11-19T12:32:13;4.47;;;1.80;;
8665;SDS011;4370;48.916;8.380;2023-11-19T12:34:39;2.47;;;1.60;;
8665;SDS011;4370;48.916;8.380;2023-11-19T12:37:09;3.60;;;1.60;;
8665;SDS011;4370;48.916;8.380;2023-11-19T12:39:35;3.90;;;1.60;;
8665;SDS011;4370;48.916;8.380;2023-11-19T12:42:00;2.10;;;1.30;;
8665;SDS011;4370;48.916;8.380;2023-11-19T12:44:28;5.03;;;2.00;;
8665;SDS011;4370;48.916;8.380;2023-11-19T12:47:01;3.67;;;1.40;;
8665;SDS011;4370;48.916;8.380;2023-11-19T12:49:36;2.37;;;1.30;;
8665;SDS011;4370;48.916;8.380;2023-11-19T12:52:11;3.60;;;1.27;;
8665;SDS011;4370;48.916;8.380;2023-11-19T12:54:37;2.43;;;1.43;;
8665;SDS011;4370;48.916;8.380;2023-11-19T12:57:04;4.03;;;1.20;;
8665;SDS011;4370;48.916;8.380;2023-11-19T12:59:30;1.53;;;1.33;;
8665;SDS011;4370;48.916;8.380;2023-11-19T13:01:56;4.30;;;1.50;;
8665;SDS011;4370;48.916;8.380;2023-11-19T13:04:27;5.37;;;1.47;;
8665;SDS011;4370;48.916;8.380;2023-11-19T13:06:56;1.70;;;1.40;;
8665;SDS011;4370;48.916;8.380;2023-11-19T13:09:26;2.90;;;1.60;;
8665;SDS011;4370;48.916;8.380;2023-11-19T13:11:54;3.93;;;1.67;;
8665;SDS011;4370;48.916;8.380;2023-11-19T13:14:21;3.30;;;1.83;;
8665;SDS011;4370;48.916;8.380;2023-11-19T13:16:48;2.80;;;1.77;;
8665;SDS011;4370;48.916;8.380;2023-11-19T13:19:14;2.87;;;1.67;;
8665;SDS011;4370;48.916;8.380;2023-11-19T13:21:44;2.27;;;1.60;;
8665;SDS011;4370;48.916;8.380;2023-11-19T13:24:12;3.03;;;1.80;;
8665;SDS011;4370;48.916;8.380;2023-11-19T13:26:38;2.60;;;1.60;;
8665;SDS011;4370;48.916;8.380;2023-11-19T13:29:07;4.50;;;1.87;;
8665;SDS011;4370;48.916;8.380;2023-11-19T13:31:35;2.90;;;1.70;;
8665;SDS011;4370;48.916;8.380;2023-11-19T13:34:01;3.60;;;1.90;;
8665;SDS011;4370;48.916;8.380;2023-11-19T13:36:27;1.87;;;1.43;;
8665;SDS011;4370;48.916;8.380;2023-11-19T13:38:54;1.70;;;1.60;;
8665;SDS011;4370;48.916;8.380;2023-11-19T13:41:24;3.10;;;1.70;;
8665;SDS011;4370;48.916;8.380;2023-11-19T13:43:53;2.97;;;1.40;;
8665;SDS011;4370;48.916;8.380;2023-11-19T13:46:20;2.47;;;1.43;;
8665;SDS011;4370;48.916;8.380;2023-11-19T13:48:48;4.07;;;1.90;;
8665;SDS011;4370;48.916;8.380;2023-11-19T13:51:16;5.23;;;1.97;;
8665;SDS011;4370;48.916;8.380;2023-11-19T13:53:41;2.00;;;1.30;;
8665;SDS011;4370;48.916;8.380;2023-11-19T13:56:08;3.20;;;1.80;;
8665;SDS011;4370;48.916;8.380;2023-11-19T13:58:34;5.20;;;2.50;;
8665;SDS011;4370;48.916;8.380;2023-11-19T14:01:00;2.07;;;1.77;;
8665;SDS011;4370;48.916;8.380;2023-11-19T14:03:27;4.57;;;1.60;;
8665;SDS011;4370;48.916;8.380;2023-11-19T14:05:53;2.33;;;1.77;;
8665;SDS011;4370;48.916;8.380;2023-11-19T14:08:20;3.57;;;1.37;;
8665;SDS011;4370;48.916;8.380;2023-11-19T14:10:46;2.20;;;1.33;;
8665;SDS011;4370;48.916;8.380;2023-11-19T14:13:13;3.33;;;1.43;;
8665;SDS011;4370;48.916;8.380;2023-11-19T14:15:40;1.60;;;1.40;;
8665;SDS011;4370;48.916;8.380;2023-11-19T14:18:07;2.60;;;1.70;;
8665;SDS011;4370;48.916;8.380;2023-11-19T14:20:33;4.33;;;1.40;;
8665;SDS011;4370;48.916;8.380;2023-11-19T14:23:00;2.30;;;1.47;;
8665;SDS011;4370;48.916;8.380;2023-11-19T14:25:26;2.97;;;1.33;;
8665;SDS011;4370;48.916;8.380;2023-11-19T14:27:52;3.27;;;1.27;;
8665;SDS011;4370;48.916;8.380;2023-11-19T14:30:18;2.37;;;1.67;;
8665;SDS011;4370;48.916;8.380;2023-11-19T14:32:44;2.90;;;1.40;;
8665;SDS011;4370;48.916;8.380;2023-11-19T14:35:11;4.73;;;1.40;;
8665;SDS011;4370;48.916;8.380;2023-11-19T14:37:37;3.10;;;1.23;;
8665;SDS011;4370;48.916;8.380;2023-11-19T14:40:04;4.17;;;1.60;;
8665;SDS011;4370;48.916;8.380;2023-11-19T14:42:34;1.30;;;1.20;;
8665;SDS011;4370;48.916;8.380;2023-11-19T14:44:59;3.40;;;1.70;;
8665;SDS011;4370;48.916;8.380;2023-11-19T14:47:25;2.70;;;1.40;;
8665;SDS011;4370;48.916;8.380;2023-11-19T14:49:50;4.10;;;1.30;;
8665;SDS011;4370;48.916;8.380;2023-11-19T14:52:16;2.60;;;1.20;;
8665;SDS011;4370;48.916;8.380;2023-11-19T14:54:42;1.30;;;1.20;;
8665;SDS011;4370;48.916;8.380;2023-11-19T14:57:08;2.23;;;1.20;;
8665;SDS011;4370;48.916;8.380;2023-11-19T14:59:34;1.57;;;1.20;;
8665;SDS011;4370;48.916;8.380;2023-11-19T15:02:00;1.97;;;1.20;;
8665;SDS011;4370;48.916;8.380;2023-11-19T15:04:26;3.77;;;1.53;;
8665;SDS011;4370;48.916;8.380;2023-11-19T15:06:52;4.50;;;1.60;;
8665;SDS011;4370;48.916;8.380;2023-11-19T15:09:18;2.57;;;1.30;;
8665;SDS011;4370;48.916;8.380;2023-11-19T15:11:46;4.47;;;1.40;;
8665;SDS011;4370;48.916;8.380;2023-11-19T15:14:13;2.20;;;1.30;;
8665;SDS011;4370;48.916;8.380;2023-11-19T15:16:42;4.28;;;1.25;;
8665;SDS011;4370;48.916;8.380;2023-11-19T15:19:08;1.77;;;1.10;;
8665;SDS011;4370;48.916;8.380;2023-11-19T15:21:34;4.00;;;1.57;;
8665;SDS011;4370;48.916;8.380;2023-11-19T15:24:00;4.13;;;1.23;;
8665;SDS011;4370;48.916;8.380;2023-11-19T15:26:29;5.23;;;1.23;;
8665;SDS011;4370;48.916;8.380;2023-11-19T15:28:55;2.37;;;1.10;;
8665;SDS011;4370;48.916;8.380;2023-11-19T15:31:22;2.78;;;1.40;;
8665;SDS011;4370;48.916;8.380;2023-11-19T15:33:48;2.47;;;1.40;;
8665;SDS011;4370;48.916;8.380;2023-11-19T15:36:14;3.27;;;1.70;;
8665;SDS011;4370;48.916;8.380;2023-11-19T15:38:41;5.00;;;1.50;;
8665;SDS011;4370;48.916;8.380;2023-11-19T15:41:06;1.60;;;1.10;;
8665;SDS011;4370;48.916;8.380;2023-11-19T15:43:33;3.17;;;1.30;;
8665;SDS011;4370;48.916;8.380;2023-11-19T15:45:58;2.90;;;1.20;;
8665;SDS011;4370;48.916;8.380;2023-11-19T15:48:26;2.60;;;1.30;;